Time;durP1;ratioP1;P1;durP2;ratioP2;P2;SDS_P1;SDS_P2;PMS_P1;PMS_P2;Temp;Humidity;BMP_temperature;BMP_pressure;BME280_temperature;BME280_humidity;BME280_pressure;Samples;Min_cycle;Max_cycle;Signal;HPM_P1;HPM_P2
2022/07/29 00:02:09;;;;;;;2.20;1.53;;;21.60;28.90;;;;;;5032024;28;20479;-46
2022/07/29 00:04:36;;;;;;;6.37;2.70;;;21.60;29.00;;;;;;5033353;28;20412;-46
2022/07/29 00:07:03;;;;;;;2.50;1.77;;;21.60;29.00;;;;;;5033089;28;20912;-45
2022/07/29 00:09:28;;;;;;;2.97;1.60;;;21.60;28.90;;;;;;5033219;28;20244;-46
2022/07/29 00:11:59;;;;;;;3.17;1.40;;;21.50;28.90;;;;;;5033082;28;20474;-46
2022/07/29 00:14:24;;;;;;;3.43;2.30;;;21.50;28.90;;;;;;5033097;28;20162;-45
2022/07/29 00:16:50;;;;;;;2.70;1.80;;;21.60;29.00;;;;;;5032911;28;20418;-46
2022/07/29 00:19:16;;;;;;;5.67;1.80;;;21.60;29.00;;;;;;5033053;28;20182;-46
2022/07/29 00:21:42;;;;;;;3.00;2.00;;;21.50;29.20;;;;;;5032961;28;20205;-46
2022/07/29 00:24:08;;;;;;;7.50;2.47;;;21.50;29.40;;;;;;5033171;28;20231;-45
2022/07/29 00:26:33;;;;;;;6.13;2.20;;;21.40;30.20;;;;;;5032624;28;20764;-46
2022/07/29 00:29:01;;;;;;;3.50;2.07;;;21.40;29.80;;;;;;5032716;28;20456;-46
2022/07/29 00:31:27;;;;;;;2.97;1.77;;;21.40;29.90;;;;;;5032713;28;20421;-45
2022/07/29 00:33:53;;;;;;;2.85;1.75;;;21.30;29.90;;;;;;5033075;28;20408;-46
2022/07/29 00:36:20;;;;;;;2.40;1.50;;;21.30;30.10;;;;;;5032833;28;20661;-46
2022/07/29 00:38:50;;;;;;;4.20;2.15;;;21.20;30.20;;;;;;5032669;28;20188;-45
2022/07/29 00:41:16;;;;;;;2.63;1.95;;;21.20;30.20;;;;;;5032551;28;20201;-45
2022/07/29 00:43:43;;;;;;;4.00;2.08;;;21.20;30.30;;;;;;5032695;28;20198;-46
2022/07/29 00:46:09;;;;;;;3.00;1.80;;;21.10;30.50;;;;;;5032495;28;20637;-45
2022/07/29 00:48:35;;;;;;;2.25;1.10;;;21.00;30.30;;;;;;5032558;28;20862;-45
2022/07/29 00:51:02;;;;;;;2.75;1.48;;;21.00;30.20;;;;;;5032493;28;20190;-45
2022/07/29 00:53:30;;;;;;;4.97;3.08;;;21.00;30.30;;;;;;5032501;28;20664;-45
2022/07/29 00:55:57;;;;;;;4.47;2.30;;;21.00;30.40;;;;;;5032109;28;20190;-45
2022/07/29 00:58:23;;;;;;;3.97;1.57;;;20.90;30.40;;;;;;5032558;28;20174;-46
2022/07/29 01:00:49;;;;;;;2.45;1.95;;;20.90;30.40;;;;;;5032389;28;20476;-46
2022/07/29 01:03:15;;;;;;;2.70;1.43;;;20.90;30.60;;;;;;5032417;28;20201;-46
2022/07/29 01:05:44;;;;;;;2.57;1.57;;;20.90;31.50;;;;;;5032170;28;20224;-46
2022/07/29 01:08:12;;;;;;;4.10;1.33;;;20.90;30.70;;;;;;5032224;28;20463;-46
2022/07/29 01:10:39;;;;;;;3.35;1.73;;;20.90;30.80;;;;;;5032096;28;20639;-45
2022/07/29 01:13:05;;;;;;;4.85;1.90;;;20.90;30.70;;;;;;5031883;28;20162;-45
2022/07/29 01:15:33;;;;;;;3.15;1.70;;;20.90;30.90;;;;;;5031941;28;20193;-46
2022/07/29 01:18:25;;;;;;;3.65;2.47;;;20.80;30.90;;;;;;5032178;28;20546;-45
2022/07/29 01:21:05;;;;;;;2.97;1.60;;;20.80;30.90;;;;;;5032289;28;20198;-46
2022/07/29 01:23:56;;;;;;;9.18;1.90;;;20.80;31.20;;;;;;5032347;28;20166;-45
2022/07/29 01:26:46;;;;;;;3.25;1.90;;;20.80;31.40;;;;;;5031923;28;20170;-46
2022/07/29 01:29:38;;;;;;;2.25;1.25;;;20.70;31.70;;;;;;5032128;28;20198;-45
2022/07/29 01:32:04;;;;;;;4.10;1.88;;;20.60;31.60;;;;;;5031981;28;20292;-45
2022/07/29 01:34:44;;;;;;;4.83;1.93;;;20.60;31.60;;;;;;5030753;28;20189;-45
2022/07/29 01:37:25;;;;;;;5.63;1.83;;;20.60;31.70;;;;;;5032062;28;20224;-45
2022/07/29 01:39:55;;;;;;;3.22;1.88;;;20.50;31.90;;;;;;5031829;28;20668;-46
2022/07/29 01:42:26;;;;;;;3.25;2.10;;;20.50;32.00;;;;;;5031792;28;20559;-45
2022/07/29 01:45:21;;;;;;;3.50;1.63;;;20.50;31.90;;;;;;5031830;28;20166;-44
2022/07/29 01:47:56;;;;;;;2.60;1.80;;;20.50;32.10;;;;;;5024116;28;20185;-46
2022/07/29 01:50:34;;;;;;;3.65;2.58;;;20.50;31.90;;;;;;5031909;28;20212;-46
2022/07/29 01:53:06;;;;;;;5.55;2.25;;;20.40;32.00;;;;;;5031899;28;20526;-45
2022/07/29 01:55:36;;;;;;;3.92;2.10;;;20.40;32.00;;;;;;5031985;28;20170;-45
2022/07/29 01:58:05;;;;;;;3.60;2.05;;;20.40;32.00;;;;;;5031765;28;20185;-46
2022/07/29 02:00:33;;;;;;;4.25;1.88;;;20.40;31.90;;;;;;5031416;28;20765;-46
2022/07/29 02:03:02;;;;;;;4.80;2.50;;;20.40;32.20;;;;;;5031754;28;20518;-46
2022/07/29 02:05:30;;;;;;;3.88;1.83;;;20.30;32.10;;;;;;5031708;28;20170;-45
2022/07/29 02:07:58;;;;;;;4.25;1.98;;;20.30;32.30;;;;;;5031618;28;20271;-46
2022/07/29 02:10:27;;;;;;;3.72;2.60;;;20.30;32.30;;;;;;5031560;28;20210;-45
2022/07/29 02:12:55;;;;;;;3.50;2.33;;;20.30;32.20;;;;;;5031550;28;20185;-46
2022/07/29 02:15:26;;;;;;;3.33;2.47;;;20.30;32.30;;;;;;5031570;28;20173;-45
2022/07/29 02:18:00;;;;;;;4.25;2.63;;;20.30;32.30;;;;;;5031508;28;20170;-46
2022/07/29 02:20:28;;;;;;;8.52;2.30;;;20.40;32.40;;;;;;5031564;28;20178;-46
2022/07/29 02:22:56;;;;;;;4.85;2.33;;;20.40;32.50;;;;;;5031774;28;20182;-46
2022/07/29 02:25:23;;;;;;;6.63;2.85;;;20.30;32.60;;;;;;5033828;28;20170;-45
2022/07/29 02:27:51;;;;;;;4.55;3.22;;;20.30;32.50;;;;;;5034950;28;20642;-45
2022/07/29 02:30:19;;;;;;;5.88;2.75;;;20.40;32.60;;;;;;5035073;28;20247;-45
2022/07/29 02:32:46;;;;;;;4.35;3.47;;;20.30;32.70;;;;;;5035038;28;20642;-45
2022/07/29 02:35:14;;;;;;;9.00;4.10;;;20.40;32.90;;;;;;5034997;28;20541;-45
2022/07/29 02:37:43;;;;;;;4.82;4.32;;;20.30;33.00;;;;;;5035088;28;20206;-46
2022/07/29 02:40:11;;;;;;;10.90;6.22;;;20.30;32.90;;;;;;5035002;28;20572;-46
2022/07/29 02:42:41;;;;;;;7.65;6.28;;;20.30;32.90;;;;;;5034887;28;20196;-45
2022/07/29 02:45:07;;;;;;;9.80;6.68;;;20.30;32.80;;;;;;5034872;28;20172;-46
2022/07/29 02:47:48;;;;;;;14.27;7.93;;;20.30;33.00;;;;;;5034570;28;20186;-45
2022/07/29 02:50:26;;;;;;;10.25;8.18;;;20.30;33.00;;;;;;5034771;28;20615;-46
2022/07/29 02:53:04;;;;;;;14.52;8.02;;;20.30;32.90;;;;;;5034828;28;20165;-45
2022/07/29 02:55:34;;;;;;;9.23;7.30;;;20.30;32.90;;;;;;5034579;28;20680;-45
2022/07/29 02:58:19;;;;;;;13.77;7.90;;;20.30;33.10;;;;;;5034634;28;20174;-45
2022/07/29 03:00:47;;;;;;;11.85;7.60;;;20.30;33.10;;;;;;5034361;28;20553;-45
2022/07/29 03:03:15;;;;;;;11.73;7.90;;;20.30;33.10;;;;;;5034852;28;20190;-45
2022/07/29 03:05:41;;;;;;;11.00;7.60;;;20.30;33.20;;;;;;5034231;28;20173;-46
2022/07/29 03:08:10;;;;;;;13.47;8.00;;;20.30;33.30;;;;;;5034357;28;20177;-46
2022/07/29 03:10:43;;;;;;;9.35;7.22;;;20.30;33.40;;;;;;5034107;28;20587;-46
2022/07/29 03:13:10;;;;;;;10.75;8.80;;;20.30;33.30;;;;;;5034370;28;20178;-45
2022/07/29 03:15:36;;;;;;;18.52;8.88;;;20.30;33.20;;;;;;5034328;28;20181;-45
2022/07/29 03:18:03;;;;;;;15.15;9.05;;;20.30;33.40;;;;;;5034282;28;20670;-46
2022/07/29 03:20:29;;;;;;;16.08;8.55;;;20.30;33.50;;;;;;5034412;28;20205;-45
2022/07/29 03:22:55;;;;;;;10.73;8.57;;;20.30;33.50;;;;;;5034106;28;20181;-45
2022/07/29 03:25:21;;;;;;;11.20;7.30;;;20.30;33.40;;;;;;5034130;28;20537;-46
2022/07/29 03:27:48;;;;;;;9.20;6.43;;;20.40;33.60;;;;;;5033856;28;20593;-46
2022/07/29 03:30:15;;;;;;;9.60;7.03;;;20.30;33.90;;;;;;5033909;28;20723;-46
2022/07/29 03:32:41;;;;;;;9.50;5.55;;;20.30;33.70;;;;;;5050531;23;20233;-49
2022/07/29 03:35:07;;;;;;;12.73;7.87;;;20.30;33.60;;;;;;5025440;28;20518;-48
2022/07/29 03:37:36;;;;;;;9.85;7.63;;;20.30;33.60;;;;;;5033276;28;20396;-48
2022/07/29 03:40:06;;;;;;;15.13;6.78;;;20.30;33.60;;;;;;5033685;28;20218;-47
2022/07/29 03:42:35;;;;;;;11.50;7.88;;;20.30;33.70;;;;;;5033796;28;20669;-48
2022/07/29 03:45:06;;;;;;;11.15;7.05;;;20.30;33.70;;;;;;5034040;28;20665;-48
2022/07/29 03:47:35;;;;;;;12.48;6.40;;;20.30;33.60;;;;;;5033467;28;20169;-47
2022/07/29 03:50:06;;;;;;;8.07;6.82;;;20.30;33.80;;;;;;5033572;28;20262;-47
2022/07/29 03:52:33;;;;;;;10.85;7.28;;;20.30;33.60;;;;;;5033506;28;20189;-48
2022/07/29 03:54:59;;;;;;;11.52;6.75;;;20.30;33.60;;;;;;5033538;28;20174;-48
2022/07/29 03:57:27;;;;;;;10.98;8.07;;;20.30;33.60;;;;;;5033336;28;20166;-47
2022/07/29 03:59:54;;;;;;;12.93;7.78;;;20.40;33.50;;;;;;5033433;28;20170;-47
2022/07/29 04:02:20;;;;;;;16.38;8.30;;;20.30;33.60;;;;;;5033360;28;20185;-48
2022/07/29 04:04:46;;;;;;;11.27;8.98;;;20.30;33.70;;;;;;5033338;28;20177;-48
2022/07/29 04:07:14;;;;;;;12.20;8.93;;;20.30;33.70;;;;;;5033055;28;20193;-48
2022/07/29 04:09:39;;;;;;;10.20;7.70;;;20.30;33.70;;;;;;5033149;28;20202;-48
2022/07/29 04:12:06;;;;;;;10.20;8.10;;;20.30;33.90;;;;;;5033057;28;20200;-47
2022/07/29 04:14:33;;;;;;;13.35;7.95;;;20.30;34.00;;;;;;5033154;28;20819;-47
2022/07/29 04:17:00;;;;;;;15.38;8.80;;;20.30;34.10;;;;;;5032928;28;20174;-47
2022/07/29 04:19:25;;;;;;;14.48;8.70;;;20.30;34.20;;;;;;5032946;28;20257;-47
2022/07/29 04:21:51;;;;;;;11.93;8.00;;;20.30;34.10;;;;;;5032935;28;20231;-48
2022/07/29 04:24:17;;;;;;;10.67;9.27;;;20.40;34.10;;;;;;5032936;28;20206;-47
2022/07/29 04:26:45;;;;;;;9.53;8.50;;;20.40;34.10;;;;;;5032752;28;20404;-48
2022/07/29 04:29:11;;;;;;;10.80;8.25;;;20.40;34.20;;;;;;5033092;28;20201;-47
2022/07/29 04:31:37;;;;;;;13.63;8.50;;;20.40;34.50;;;;;;5032871;28;20182;-48
2022/07/29 04:34:03;;;;;;;14.93;8.23;;;20.50;34.60;;;;;;5032870;28;20193;-47
2022/07/29 04:36:29;;;;;;;13.60;8.23;;;20.50;34.70;;;;;;5032566;28;20162;-48
2022/07/29 04:38:55;;;;;;;13.10;8.57;;;20.50;34.80;;;;;;5032933;28;20523;-47
2022/07/29 04:41:21;;;;;;;9.57;8.67;;;20.50;34.80;;;;;;5032963;28;20521;-47
2022/07/29 04:43:46;;;;;;;10.63;7.47;;;20.60;34.90;;;;;;5032682;28;20441;-48
2022/07/29 04:46:12;;;;;;;9.83;8.20;;;20.60;34.90;;;;;;5032374;28;20534;-47
2022/07/29 04:48:38;;;;;;;10.20;8.97;;;20.60;35.00;;;;;;5032003;28;20180;-47
2022/07/29 04:51:04;;;;;;;10.67;8.53;;;20.70;35.10;;;;;;5032516;28;20652;-47
2022/07/29 04:53:29;;;;;;;11.90;9.10;;;20.70;35.00;;;;;;5032386;28;20590;-48
2022/07/29 04:55:55;;;;;;;13.10;9.63;;;20.70;34.90;;;;;;5032193;28;20538;-47
2022/07/29 04:58:23;;;;;;;13.00;8.97;;;20.80;35.00;;;;;;5032434;28;20193;-47
2022/07/29 05:00:49;;;;;;;12.35;10.40;;;20.80;35.00;;;;;;5032329;28;20173;-48
2022/07/29 05:03:15;;;;;;;12.20;10.35;;;20.90;35.00;;;;;;5032230;28;20702;-47
2022/07/29 05:05:42;;;;;;;16.33;10.00;;;20.90;35.20;;;;;;5032184;28;20174;-48
2022/07/29 05:08:07;;;;;;;15.97;11.97;;;21.00;35.20;;;;;;5032245;28;20224;-47
2022/07/29 05:10:37;;;;;;;13.07;9.97;;;21.00;35.20;;;;;;5032156;28;20461;-48
2022/07/29 05:13:06;;;;;;;20.03;10.50;;;21.00;35.10;;;;;;5032118;28;20796;-48
2022/07/29 05:15:32;;;;;;;12.18;9.13;;;21.10;34.90;;;;;;5032042;28;20419;-48
2022/07/29 05:17:58;;;;;;;14.63;9.93;;;21.20;34.90;;;;;;5032156;28;20205;-47
2022/07/29 05:20:27;;;;;;;18.10;12.07;;;21.20;34.70;;;;;;5032170;28;20193;-48
2022/07/29 05:22:55;;;;;;;16.05;12.93;;;21.30;34.90;;;;;;5031985;28;20424;-48
2022/07/29 05:25:21;;;;;;;14.23;10.18;;;21.30;34.50;;;;;;5032026;28;20181;-48
2022/07/29 05:27:47;;;;;;;12.15;9.63;;;21.40;34.60;;;;;;5031913;28;20257;-48
2022/07/29 05:30:24;;;;;;;11.52;10.32;;;21.40;34.60;;;;;;5031892;28;20206;-46
2022/07/29 05:32:50;;;;;;;15.70;10.50;;;21.50;34.60;;;;;;5027948;28;20213;-48
2022/07/29 05:35:16;;;;;;;20.27;10.13;;;21.50;34.20;;;;;;5031938;28;20397;-47
2022/07/29 05:37:41;;;;;;;14.77;9.27;;;21.60;34.00;;;;;;5031766;28;20165;-48
2022/07/29 05:40:08;;;;;;;13.10;10.10;;;21.70;33.90;;;;;;5032034;28;20440;-47
2022/07/29 05:42:34;;;;;;;12.83;10.70;;;21.80;33.80;;;;;;5031886;28;20204;-47
2022/07/29 05:45:00;;;;;;;13.18;10.30;;;21.80;33.60;;;;;;5031772;28;20494;-48
2022/07/29 05:47:26;;;;;;;15.07;12.20;;;21.90;33.40;;;;;;5031730;28;20177;-48
2022/07/29 05:49:52;;;;;;;13.00;9.93;;;21.90;33.30;;;;;;5031807;28;20460;-48
2022/07/29 05:52:18;;;;;;;12.63;10.37;;;22.00;33.40;;;;;;5030343;28;20194;-48
2022/07/29 05:54:44;;;;;;;12.17;10.10;;;22.00;33.40;;;;;;5031755;28;20167;-48
2022/07/29 05:57:17;;;;;;;13.40;9.63;;;22.00;33.30;;;;;;5031542;28;20904;-47
2022/07/29 05:59:43;;;;;;;13.57;11.70;;;22.10;33.40;;;;;;5034800;28;20482;-48
2022/07/29 06:02:09;;;;;;;15.13;12.67;;;22.10;33.30;;;;;;5035598;28;20988;-47
2022/07/29 06:04:34;;;;;;;11.40;9.00;;;22.20;33.10;;;;;;5035831;28;20269;-47
2022/07/29 06:07:01;;;;;;;14.73;10.20;;;22.30;33.10;;;;;;5035317;28;20634;-48
2022/07/29 06:09:27;;;;;;;17.17;11.03;;;22.30;33.10;;;;;;5035482;28;20200;-47
2022/07/29 06:11:53;;;;;;;15.23;10.30;;;22.30;33.10;;;;;;5035295;28;20470;-47
2022/07/29 06:14:19;;;;;;;11.70;9.20;;;22.30;33.00;;;;;;5035386;28;20412;-47
2022/07/29 06:16:45;;;;;;;14.10;9.77;;;22.40;33.30;;;;;;5035143;28;20957;-48
2022/07/29 06:19:11;;;;;;;12.30;10.57;;;22.50;33.70;;;;;;5035391;28;20405;-48
2022/07/29 06:21:46;;;;;;;16.30;12.43;;;22.50;33.50;;;;;;5035240;28;20465;-47
2022/07/29 06:24:13;;;;;;;22.97;12.27;;;22.60;33.30;;;;;;5035287;28;20452;-47
2022/07/29 06:26:40;;;;;;;14.20;11.37;;;22.60;33.00;;;;;;5034800;28;20416;-48
2022/07/29 06:29:06;;;;;;;13.90;10.37;;;22.70;33.00;;;;;;5035077;28;20966;-47
2022/07/29 06:31:32;;;;;;;14.63;10.40;;;22.70;33.00;;;;;;5034818;28;20503;-47
2022/07/29 06:33:58;;;;;;;17.23;12.60;;;22.80;33.10;;;;;;5035164;28;21032;-48
2022/07/29 06:36:24;;;;;;;13.13;10.13;;;22.90;32.80;;;;;;5034734;28;20550;-48
2022/07/29 06:38:50;;;;;;;17.90;11.83;;;23.00;32.60;;;;;;5034920;28;20251;-46
2022/07/29 06:41:16;;;;;;;14.57;9.47;;;22.90;32.30;;;;;;5034898;28;20173;-47
2022/07/29 06:43:44;;;;;;;14.40;9.90;;;23.00;32.20;;;;;;5035103;28;20279;-48
2022/07/29 06:46:13;;;;;;;16.00;9.23;;;23.00;32.30;;;;;;5034652;28;20900;-48
2022/07/29 06:48:41;;;;;;;11.73;9.27;;;23.10;32.40;;;;;;5034683;28;20432;-48
2022/07/29 06:51:08;;;;;;;11.73;9.07;;;23.10;32.40;;;;;;5034767;28;20405;-48
2022/07/29 06:53:35;;;;;;;12.00;9.70;;;23.20;32.20;;;;;;5034519;28;20451;-48
2022/07/29 06:56:02;;;;;;;19.03;9.30;;;23.30;32.20;;;;;;5034677;28;20404;-47
2022/07/29 06:58:28;;;;;;;15.37;11.17;;;23.40;32.10;;;;;;5034499;28;20765;-47
2022/07/29 07:00:55;;;;;;;14.47;9.60;;;23.40;32.10;;;;;;5034520;28;20459;-48
2022/07/29 07:03:22;;;;;;;10.87;8.73;;;23.50;31.80;;;;;;5034411;28;20819;-48
2022/07/29 07:05:48;;;;;;;10.50;9.40;;;23.50;32.00;;;;;;5034147;28;20896;-48
2022/07/29 07:08:15;;;;;;;10.17;9.13;;;23.60;32.10;;;;;;5034461;28;20392;-48
2022/07/29 07:10:42;;;;;;;10.67;9.60;;;23.70;32.00;;;;;;5033761;28;20864;-48
2022/07/29 07:13:07;;;;;;;17.87;10.70;;;23.70;31.60;;;;;;5034345;28;20417;-47
2022/07/29 07:15:35;;;;;;;29.27;10.47;;;23.80;31.60;;;;;;5034132;28;20405;-48
2022/07/29 07:18:00;;;;;;;15.23;8.80;;;23.80;31.40;;;;;;5034318;28;20509;-48
2022/07/29 07:20:26;;;;;;;11.23;9.40;;;23.90;31.50;;;;;;5034157;28;20947;-47
2022/07/29 07:22:52;;;;;;;19.40;9.00;;;24.00;31.40;;;;;;5034077;28;20669;-48
2022/07/29 07:25:18;;;;;;;12.57;9.23;;;24.00;31.30;;;;;;5034254;28;20178;-48
2022/07/29 07:27:44;;;;;;;17.70;8.90;;;24.10;31.30;;;;;;5033909;28;20181;-48
2022/07/29 07:30:11;;;;;;;9.07;7.37;;;24.20;31.10;;;;;;5033987;28;20557;-48
2022/07/29 07:32:37;;;;;;;12.43;8.40;;;24.30;31.60;;;;;;5033755;28;20447;-48
2022/07/29 07:35:07;;;;;;;18.07;9.03;;;24.40;31.40;;;;;;5033993;28;20400;-48
2022/07/29 07:37:33;;;;;;;10.47;8.43;;;24.40;31.20;;;;;;5033548;28;20749;-48
2022/07/29 07:39:59;;;;;;;13.77;9.10;;;24.50;31.10;;;;;;5033824;28;20816;-47
2022/07/29 07:42:25;;;;;;;10.50;7.90;;;24.60;31.00;;;;;;5033756;28;20428;-47
2022/07/29 07:44:51;;;;;;;9.73;7.40;;;24.60;31.20;;;;;;5033798;28;20173;-48
2022/07/29 07:47:19;;;;;;;14.57;7.70;;;24.70;31.10;;;;;;5033617;28;20173;-47
2022/07/29 07:49:52;;;;;;;13.43;7.47;;;24.80;30.90;;;;;;5032527;28;20201;-47
2022/07/29 07:52:20;;;;;;;11.43;7.77;;;24.90;31.00;;;;;;5033798;28;20428;-46
2022/07/29 07:54:46;;;;;;;13.73;9.00;;;24.90;30.70;;;;;;5033602;28;20885;-47
2022/07/29 07:57:13;;;;;;;11.40;7.93;;;25.00;30.50;;;;;;5033351;28;20413;-47
2022/07/29 07:59:39;;;;;;;16.30;8.50;;;25.10;30.50;;;;;;5033375;28;20442;-46
2022/07/29 08:02:06;;;;;;;9.93;7.73;;;25.20;30.00;;;;;;5033302;28;20447;-48
2022/07/29 08:04:32;;;;;;;12.80;7.43;;;25.20;30.10;;;;;;5033292;28;20404;-48
2022/07/29 08:06:59;;;;;;;9.67;7.17;;;25.20;30.40;;;;;;5033377;28;20482;-48
2022/07/29 08:09:26;;;;;;;9.83;6.47;;;25.30;30.30;;;;;;5033659;28;20448;-49
2022/07/29 08:11:52;;;;;;;9.03;7.90;;;25.40;29.90;;;;;;5033150;28;20508;-48
2022/07/29 08:14:19;;;;;;;13.50;7.67;;;25.40;30.30;;;;;;5033224;28;20491;-47
2022/07/29 08:16:45;;;;;;;13.47;8.23;;;25.50;30.10;;;;;;5032934;28;20174;-47
2022/07/29 08:19:11;;;;;;;12.23;8.40;;;25.60;29.80;;;;;;5032921;28;20491;-48
2022/07/29 08:21:36;;;;;;;11.00;7.10;;;25.70;29.80;;;;;;5032163;28;20517;-47
2022/07/29 08:26:47;;;;;;;9.73;7.50;;;25.90;29.80;;;;;;5032795;28;20549;-47
2022/07/29 08:29:12;;;;;;;15.40;7.10;;;26.00;29.90;;;;;;5032799;28;20457;-48
2022/07/29 08:31:39;;;;;;;13.80;7.27;;;26.10;29.70;;;;;;5032748;28;20200;-48
2022/07/29 08:34:05;;;;;;;12.33;7.53;;;26.20;29.30;;;;;;5032807;28;20186;-48
2022/07/29 08:36:31;;;;;;;13.00;6.17;;;26.30;29.30;;;;;;5032722;28;20411;-50
2022/07/29 08:38:57;;;;;;;11.00;6.83;;;26.30;29.60;;;;;;5033316;28;20487;-49
2022/07/29 08:41:23;;;;;;;12.00;7.27;;;26.50;30.10;;;;;;5032878;28;20808;-48
2022/07/29 08:43:50;;;;;;;11.80;7.07;;;26.60;30.10;;;;;;5032486;28;20412;-48
2022/07/29 08:46:17;;;;;;;12.17;6.70;;;26.80;29.70;;;;;;5032317;28;20408;-49
2022/07/29 08:48:43;;;;;;;13.87;8.07;;;27.00;30.40;;;;;;5031183;28;20428;-48
2022/07/29 08:51:15;;;;;;;11.97;7.50;;;27.20;29.00;;;;;;5032555;28;20409;-48
2022/07/29 08:53:43;;;;;;;10.13;7.77;;;27.40;29.60;;;;;;5032450;28;20521;-48
2022/07/29 08:56:13;;;;;;;15.60;9.47;;;27.50;29.80;;;;;;5032248;28;20440;-49
2022/07/29 08:58:39;;;;;;;10.03;7.63;;;27.70;29.80;;;;;;5032273;28;20436;-49
2022/07/29 09:01:07;;;;;;;12.00;8.27;;;27.80;29.30;;;;;;5032359;28;20400;-49
2022/07/29 09:03:35;;;;;;;14.83;9.40;;;28.10;29.00;;;;;;5032447;28;20421;-49
2022/07/29 09:06:03;;;;;;;13.00;8.27;;;28.30;28.80;;;;;;5032530;28;20411;-49
2022/07/29 09:08:31;;;;;;;14.23;9.60;;;28.50;28.50;;;;;;5031989;28;20408;-48
2022/07/29 09:10:59;;;;;;;12.07;7.30;;;28.60;28.30;;;;;;5032724;28;20978;-49
2022/07/29 09:13:25;;;;;;;13.70;8.00;;;28.90;27.80;;;;;;5032667;28;20508;-49
2022/07/29 09:15:52;;;;;;;9.40;7.10;;;29.00;28.20;;;;;;5032143;28;20466;-49
2022/07/29 09:18:40;;;;;;;16.57;7.80;;;29.10;28.20;;;;;;5032236;28;20407;-49
2022/07/29 09:24:07;;;;;;;10.60;7.30;;;29.50;27.90;;;;;;5032621;28;20396;-49
2022/07/29 09:26:35;;;;;;;13.50;7.70;;;29.60;26.40;;;;;;5032521;28;20385;-50
2022/07/29 09:29:09;;;;;;;10.83;7.00;;;29.70;27.00;;;;;;5032382;28;20440;-49
2022/07/29 09:31:41;;;;;;;9.63;6.60;;;29.70;25.80;;;;;;5032135;28;20459;-49
2022/07/29 09:34:08;;;;;;;7.13;5.57;;;29.80;26.10;;;;;;5031528;23;20488;-46
2022/07/29 09:36:49;;;;;;;14.70;7.67;;;29.90;26.30;;;;;;5002543;28;20441;-47
2022/07/29 09:39:25;;;;;;;12.47;6.93;;;29.90;25.30;;;;;;5018723;28;20412;-46
2022/07/29 09:41:53;;;;;;;9.23;6.47;;;29.90;25.50;;;;;;5018777;28;20421;-46
2022/07/29 09:44:20;;;;;;;12.00;6.30;;;29.90;25.90;;;;;;5018655;28;20429;-45
2022/07/29 09:47:06;;;;;;;7.83;5.70;;;30.00;25.40;;;;;;5018417;28;20924;-47
2022/07/29 09:49:33;;;;;;;9.67;6.70;;;30.10;25.50;;;;;;5018598;28;20805;-47
2022/07/29 09:52:10;;;;;;;11.90;7.90;;;30.10;25.80;;;;;;5018722;28;20413;-45
2022/07/29 09:54:37;;;;;;;9.50;6.07;;;30.20;25.50;;;;;;5018454;28;20437;-48
2022/07/29 09:57:25;;;;;;;11.43;6.80;;;30.20;25.30;;;;;;5018204;28;20409;-48
2022/07/29 10:00:17;;;;;;;11.50;7.70;;;30.40;25.40;;;;;;5018462;28;20417;-45
2022/07/29 10:02:45;;;;;;;7.87;5.67;;;30.40;24.70;;;;;;5014479;28;20445;-45
2022/07/29 10:05:27;;;;;;;12.63;7.70;;;30.50;23.80;;;;;;5018384;28;20421;-46
2022/07/29 10:07:57;;;;;;;10.67;7.33;;;30.50;23.20;;;;;;5018201;28;20402;-47
2022/07/29 10:10:24;;;;;;;9.53;7.33;;;30.60;24.50;;;;;;5018352;28;20544;-47
2022/07/29 10:12:52;;;;;;;9.10;7.23;;;30.60;23.40;;;;;;5018314;28;21014;-47
2022/07/29 10:15:18;;;;;;;8.97;7.00;;;30.70;24.70;;;;;;5018583;28;20405;-46
2022/07/29 10:17:45;;;;;;;11.43;6.80;;;30.90;24.30;;;;;;5018133;28;20412;-47
2022/07/29 10:20:11;;;;;;;9.87;7.10;;;30.90;24.70;;;;;;5018269;28;20444;-48
2022/07/29 10:22:37;;;;;;;10.70;6.60;;;30.90;24.90;;;;;;5018233;28;20409;-47
2022/07/29 10:25:03;;;;;;;7.87;6.13;;;31.00;25.10;;;;;;5018378;28;20464;-48
2022/07/29 10:27:29;;;;;;;6.97;4.97;;;31.10;24.80;;;;;;5018140;28;20401;-47
2022/07/29 10:29:55;;;;;;;9.70;6.00;;;31.10;23.60;;;;;;5018100;28;20461;-48
2022/07/29 10:32:39;;;;;;;8.73;6.37;;;31.10;22.90;;;;;;5018289;28;20170;-46
2022/07/29 10:35:42;;;;;;;10.97;6.83;;;31.20;23.00;;;;;;5018275;28;20167;-47
2022/07/29 10:38:42;;;;;;;10.43;6.10;;;31.20;23.60;;;;;;5018228;28;20960;-47
2022/07/29 10:41:36;;;;;;;9.07;6.50;;;31.00;24.30;;;;;;5018171;28;20393;-47
2022/07/29 10:44:22;;;;;;;6.67;5.47;;;31.40;23.50;;;;;;5018099;28;20422;-47
2022/07/29 10:46:48;;;;;;;8.50;4.97;;;31.50;23.90;;;;;;5014180;28;20747;-48
2022/07/29 10:49:22;;;;;;;6.27;5.00;;;31.50;24.00;;;;;;5014886;28;20453;-47
2022/07/29 10:51:58;;;;;;;7.60;4.47;;;31.50;22.60;;;;;;5014948;28;20404;-46
2022/07/29 10:54:38;;;;;;;5.73;4.70;;;31.50;23.40;;;;;;5014840;28;20437;-48
2022/07/29 10:57:26;;;;;;;5.37;4.00;;;31.50;24.30;;;;;;5014627;28;20492;-48
2022/07/29 11:00:00;;;;;;;4.80;3.47;;;31.70;23.70;;;;;;5014667;28;20421;-48
2022/07/29 11:02:42;;;;;;;4.10;3.27;;;31.90;24.00;;;;;;5014625;28;20402;-48
2022/07/29 11:05:10;;;;;;;5.13;3.47;;;32.50;21.30;;;;;;5014882;28;20460;-46
2022/07/29 11:07:37;;;;;;;3.63;2.80;;;32.40;22.20;;;;;;5014774;28;20418;-46
2022/07/29 11:10:15;;;;;;;6.97;2.67;;;32.50;20.30;;;;;;5014518;28;20458;-46
2022/07/29 11:12:40;;;;;;;3.57;2.40;;;32.60;21.90;;;;;;5014400;28;20407;-46
2022/07/29 11:15:08;;;;;;;3.00;2.10;;;32.70;21.50;;;;;;5014489;28;20394;-47
2022/07/29 11:17:56;;;;;;;2.70;2.10;;;32.80;22.00;;;;;;5014545;28;20239;-47
2022/07/29 11:20:37;;;;;;;3.37;2.17;;;33.00;20.80;;;;;;5014447;28;20412;-47
2022/07/29 11:23:30;;;;;;;3.20;2.37;;;33.20;21.30;;;;;;5014580;28;20833;-46
2022/07/29 11:26:24;;;;;;;3.50;2.27;;;33.30;21.20;;;;;;5014152;28;20512;-47
2022/07/29 11:28:53;;;;;;;5.40;3.00;;;33.30;19.60;;;;;;5014463;28;20797;-47
2022/07/29 11:31:33;;;;;;;3.67;2.40;;;33.20;20.60;;;;;;5014113;28;20397;-47
2022/07/29 11:34:20;;;;;;;4.20;2.77;;;33.30;20.80;;;;;;5013893;28;20813;-47
2022/07/29 11:37:11;;;;;;;2.50;2.07;;;33.50;21.20;;;;;;5013965;28;20401;-46
2022/07/29 11:39:39;;;;;;;3.43;2.67;;;33.60;20.60;;;;;;5013946;28;20411;-48
2022/07/29 11:42:20;;;;;;;3.90;2.17;;;33.60;20.10;;;;;;5014042;28;20544;-49
2022/07/29 11:44:58;;;;;;;2.80;2.33;;;33.60;20.30;;;;;;5013783;28;20964;-46
2022/07/29 11:47:26;;;;;;;3.07;2.27;;;33.60;19.90;;;;;;5013663;28;20987;-46
2022/07/29 11:49:54;;;;;;;4.93;3.07;;;33.60;20.00;;;;;;5013773;28;20454;-46
2022/07/29 11:52:20;;;;;;;3.97;2.57;;;33.50;19.90;;;;;;5014073;28;20850;-45
2022/07/29 11:54:50;;;;;;;3.07;2.00;;;33.60;20.40;;;;;;5013690;28;20932;-45
2022/07/29 11:57:18;;;;;;;3.60;2.77;;;33.80;20.60;;;;;;5013562;28;20409;-47
2022/07/29 11:59:46;;;;;;;3.80;2.60;;;33.90;21.30;;;;;;5013916;28;20405;-47
2022/07/29 12:02:13;;;;;;;4.63;2.83;;;34.00;19.20;;;;;;5013599;28;20813;-48
2022/07/29 12:04:54;;;;;;;3.73;2.60;;;33.90;19.40;;;;;;5013496;28;20437;-48
2022/07/29 12:07:34;;;;;;;4.07;2.50;;;33.90;18.90;;;;;;5013316;28;20414;-47
2022/07/29 12:10:01;;;;;;;3.00;2.20;;;33.90;19.30;;;;;;5013507;28;20472;-46
2022/07/29 12:12:27;;;;;;;4.83;2.97;;;33.90;19.90;;;;;;5013446;28;20437;-46
2022/07/29 12:14:55;;;;;;;5.70;2.57;;;34.20;20.00;;;;;;5013331;28;20416;-49
2022/07/29 12:17:32;;;;;;;3.37;2.60;;;34.30;19.30;;;;;;5013080;28;20417;-48
2022/07/29 12:20:00;;;;;;;5.20;4.07;;;34.30;20.00;;;;;;5013587;28;20452;-48
2022/07/29 12:22:28;;;;;;;3.77;2.70;;;34.20;20.00;;;;;;5013425;28;20413;-48
2022/07/29 12:24:55;;;;;;;3.60;2.80;;;34.30;19.70;;;;;;5013048;28;20448;-49
2022/07/29 12:27:21;;;;;;;6.20;3.03;;;34.40;20.00;;;;;;5013213;28;20778;-48
2022/07/29 12:30:08;;;;;;;3.47;2.97;;;34.60;20.00;;;;;;5012983;28;20972;-49
2022/07/29 12:32:40;;;;;;;4.53;2.90;;;34.80;20.00;;;;;;5012797;28;20475;-49
2022/07/29 12:35:09;;;;;;;6.27;3.90;;;34.70;19.70;;;;;;5013107;28;20548;-48
2022/07/29 12:37:37;;;;;;;5.33;2.97;;;34.60;19.30;;;;;;5012842;28;20398;-49
2022/07/29 12:40:05;;;;;;;3.97;3.27;;;34.40;19.70;;;;;;5012783;28;20433;-46
2022/07/29 12:42:31;;;;;;;5.50;3.57;;;34.20;19.90;;;;;;5012947;28;20492;-45
2022/07/29 12:44:57;;;;;;;4.30;3.73;;;34.10;20.60;;;;;;5012832;28;20921;-50
2022/07/29 12:47:24;;;;;;;3.60;2.83;;;34.00;20.50;;;;;;5012720;28;20547;-49
2022/07/29 12:49:50;;;;;;;4.70;3.40;;;34.00;20.10;;;;;;5012749;28;20454;-48
2022/07/29 12:52:30;;;;;;;3.90;2.90;;;33.90;20.00;;;;;;5012714;28;20405;-50
2022/07/29 12:54:56;;;;;;;4.83;3.43;;;33.80;20.00;;;;;;5012798;28;20817;-49
2022/07/29 12:57:23;;;;;;;6.53;4.33;;;33.80;20.00;;;;;;5012374;28;20399;-49
2022/07/29 13:00:10;;;;;;;10.00;5.23;;;33.70;20.40;;;;;;5012675;28;20409;-49